sensor_id;sensor_type;location;lat;lon;timestamp;P1;durP1;ratioP1;P2;durP2;ratioP2
6434;SDS011;3250;42.694;23.278;2023-02-26T00:00:06;12.65;;;4.65;;
6434;SDS011;3250;42.694;23.278;2023-02-26T00:02:37;18.20;;;4.77;;
6434;SDS011;3250;42.694;23.278;2023-02-26T00:05:03;13.20;;;3.70;;
6434;SDS011;3250;42.694;23.278;2023-02-26T00:07:30;10.98;;;4.28;;
6434;SDS011;3250;42.694;23.278;2023-02-26T00:09:57;11.02;;;4.07;;
6434;SDS011;3250;42.694;23.278;2023-02-26T00:12:22;7.57;;;3.80;;
6434;SDS011;3250;42.694;23.278;2023-02-26T00:14:48;13.03;;;4.57;;
6434;SDS011;3250;42.694;23.278;2023-02-26T00:20:03;16.13;;;4.97;;
6434;SDS011;3250;42.694;23.278;2023-02-26T00:22:30;13.30;;;4.22;;
6434;SDS011;3250;42.694;23.278;2023-02-26T00:24:56;12.33;;;4.10;;
6434;SDS011;3250;42.694;23.278;2023-02-26T00:27:21;15.40;;;4.30;;
6434;SDS011;3250;42.694;23.278;2023-02-26T00:29:47;12.83;;;5.00;;
6434;SDS011;3250;42.694;23.278;2023-02-26T00:32:12;19.27;;;4.82;;
6434;SDS011;3250;42.694;23.278;2023-02-26T00:34:38;16.75;;;4.40;;
6434;SDS011;3250;42.694;23.278;2023-02-26T00:42:43;12.48;;;4.38;;
6434;SDS011;3250;42.694;23.278;2023-02-26T00:45:13;9.87;;;3.50;;
6434;SDS011;3250;42.694;23.278;2023-02-26T00:50:19;13.32;;;4.05;;
6434;SDS011;3250;42.694;23.278;2023-02-26T00:55:45;15.27;;;4.93;;
6434;SDS011;3250;42.694;23.278;2023-02-26T00:58:11;13.90;;;4.40;;
6434;SDS011;3250;42.694;23.278;2023-02-26T01:00:36;10.47;;;4.00;;
6434;SDS011;3250;42.694;23.278;2023-02-26T01:03:02;13.50;;;3.88;;
6434;SDS011;3250;42.694;23.278;2023-02-26T01:05:28;14.57;;;3.70;;
6434;SDS011;3250;42.694;23.278;2023-02-26T01:08:02;14.05;;;4.53;;
6434;SDS011;3250;42.694;23.278;2023-02-26T01:10:36;14.77;;;4.13;;
6434;SDS011;3250;42.694;23.278;2023-02-26T01:13:02;10.10;;;4.05;;
6434;SDS011;3250;42.694;23.278;2023-02-26T01:15:28;11.75;;;3.97;;
6434;SDS011;3250;42.694;23.278;2023-02-26T01:17:55;12.40;;;4.33;;
6434;SDS011;3250;42.694;23.278;2023-02-26T01:20:35;14.73;;;4.70;;
6434;SDS011;3250;42.694;23.278;2023-02-26T01:23:06;9.95;;;4.55;;
6434;SDS011;3250;42.694;23.278;2023-02-26T01:25:36;17.40;;;4.05;;
6434;SDS011;3250;42.694;23.278;2023-02-26T01:28:07;12.70;;;4.28;;
6434;SDS011;3250;42.694;23.278;2023-02-26T01:30:33;11.50;;;3.63;;
6434;SDS011;3250;42.694;23.278;2023-02-26T01:41:21;14.75;;;4.40;;
6434;SDS011;3250;42.694;23.278;2023-02-26T01:49:26;14.23;;;4.47;;
6434;SDS011;3250;42.694;23.278;2023-02-26T01:51:53;10.60;;;3.80;;
6434;SDS011;3250;42.694;23.278;2023-02-26T01:54:19;17.35;;;4.80;;
6434;SDS011;3250;42.694;23.278;2023-02-26T01:56:47;15.48;;;4.03;;
6434;SDS011;3250;42.694;23.278;2023-02-26T01:59:16;13.73;;;3.40;;
6434;SDS011;3250;42.694;23.278;2023-02-26T02:01:49;11.02;;;3.90;;
6434;SDS011;3250;42.694;23.278;2023-02-26T02:04:17;11.60;;;3.63;;
6434;SDS011;3250;42.694;23.278;2023-02-26T02:06:43;11.65;;;3.97;;
6434;SDS011;3250;42.694;23.278;2023-02-26T02:09:09;10.45;;;3.53;;
6434;SDS011;3250;42.694;23.278;2023-02-26T02:11:39;14.15;;;3.63;;
6434;SDS011;3250;42.694;23.278;2023-02-26T02:16:56;15.98;;;4.40;;
6434;SDS011;3250;42.694;23.278;2023-02-26T02:28:16;14.77;;;4.43;;
6434;SDS011;3250;42.694;23.278;2023-02-26T02:34:18;12.60;;;3.60;;
6434;SDS011;3250;42.694;23.278;2023-02-26T02:36:30;11.07;;;3.43;;
6434;SDS011;3250;42.694;23.278;2023-02-26T02:39:06;10.55;;;3.33;;
6434;SDS011;3250;42.694;23.278;2023-02-26T02:41:38;15.50;;;3.97;;
6434;SDS011;3250;42.694;23.278;2023-02-26T02:44:10;11.18;;;3.45;;
6434;SDS011;3250;42.694;23.278;2023-02-26T02:46:40;8.55;;;3.90;;
6434;SDS011;3250;42.694;23.278;2023-02-26T02:49:12;10.95;;;3.47;;
6434;SDS011;3250;42.694;23.278;2023-02-26T02:51:46;15.52;;;3.83;;
6434;SDS011;3250;42.694;23.278;2023-02-26T02:55:02;15.70;;;3.88;;
6434;SDS011;3250;42.694;23.278;2023-02-26T02:57:13;10.60;;;3.53;;
6434;SDS011;3250;42.694;23.278;2023-02-26T02:59:44;9.73;;;3.65;;
6434;SDS011;3250;42.694;23.278;2023-02-26T03:02:15;9.40;;;4.23;;
6434;SDS011;3250;42.694;23.278;2023-02-26T03:04:55;11.57;;;3.95;;
6434;SDS011;3250;42.694;23.278;2023-02-26T03:07:21;12.37;;;3.47;;
6434;SDS011;3250;42.694;23.278;2023-02-26T03:09:47;13.80;;;3.67;;
6434;SDS011;3250;42.694;23.278;2023-02-26T03:12:13;11.43;;;3.47;;
6434;SDS011;3250;42.694;23.278;2023-02-26T03:14:38;18.60;;;3.60;;
6434;SDS011;3250;42.694;23.278;2023-02-26T03:17:15;11.02;;;3.15;;
6434;SDS011;3250;42.694;23.278;2023-02-26T03:23:00;12.27;;;3.38;;
6434;SDS011;3250;42.694;23.278;2023-02-26T03:28:27;9.53;;;3.50;;
6434;SDS011;3250;42.694;23.278;2023-02-26T03:31:07;12.70;;;3.88;;
6434;SDS011;3250;42.694;23.278;2023-02-26T03:34:14;10.48;;;3.58;;
6434;SDS011;3250;42.694;23.278;2023-02-26T03:37:06;13.02;;;3.80;;
6434;SDS011;3250;42.694;23.278;2023-02-26T03:39:41;12.93;;;3.60;;
6434;SDS011;3250;42.694;23.278;2023-02-26T03:42:11;16.10;;;3.92;;
6434;SDS011;3250;42.694;23.278;2023-02-26T03:44:47;7.68;;;3.20;;
6434;SDS011;3250;42.694;23.278;2023-02-26T03:47:17;14.10;;;3.60;;
6434;SDS011;3250;42.694;23.278;2023-02-26T03:49:54;9.65;;;3.28;;
6434;SDS011;3250;42.694;23.278;2023-02-26T03:52:24;10.67;;;3.63;;
6434;SDS011;3250;42.694;23.278;2023-02-26T03:55:12;12.45;;;4.35;;
6434;SDS011;3250;42.694;23.278;2023-02-26T03:57:44;12.57;;;3.70;;
6434;SDS011;3250;42.694;23.278;2023-02-26T04:00:10;16.85;;;4.05;;
6434;SDS011;3250;42.694;23.278;2023-02-26T04:02:44;14.85;;;3.95;;
6434;SDS011;3250;42.694;23.278;2023-02-26T04:07:45;18.73;;;3.72;;
6434;SDS011;3250;42.694;23.278;2023-02-26T04:10:17;8.45;;;3.33;;
6434;SDS011;3250;42.694;23.278;2023-02-26T04:12:45;12.40;;;3.95;;
6434;SDS011;3250;42.694;23.278;2023-02-26T04:15:11;11.02;;;3.40;;
6434;SDS011;3250;42.694;23.278;2023-02-26T04:17:37;13.40;;;3.45;;
6434;SDS011;3250;42.694;23.278;2023-02-26T04:20:02;14.97;;;3.83;;
6434;SDS011;3250;42.694;23.278;2023-02-26T04:22:37;13.75;;;4.07;;
6434;SDS011;3250;42.694;23.278;2023-02-26T04:25:03;10.00;;;3.37;;
6434;SDS011;3250;42.694;23.278;2023-02-26T04:27:29;10.52;;;3.22;;
6434;SDS011;3250;42.694;23.278;2023-02-26T04:29:55;15.07;;;3.78;;
6434;SDS011;3250;42.694;23.278;2023-02-26T04:32:20;12.07;;;3.60;;
6434;SDS011;3250;42.694;23.278;2023-02-26T04:34:45;13.23;;;3.77;;
6434;SDS011;3250;42.694;23.278;2023-02-26T04:37:11;9.30;;;2.90;;
6434;SDS011;3250;42.694;23.278;2023-02-26T04:39:36;14.15;;;3.75;;
6434;SDS011;3250;42.694;23.278;2023-02-26T04:42:01;14.20;;;3.70;;
6434;SDS011;3250;42.694;23.278;2023-02-26T04:44:28;13.05;;;4.03;;
6434;SDS011;3250;42.694;23.278;2023-02-26T04:46:54;13.38;;;3.67;;
6434;SDS011;3250;42.694;23.278;2023-02-26T04:49:19;16.60;;;4.23;;
6434;SDS011;3250;42.694;23.278;2023-02-26T04:51:45;17.80;;;3.87;;
6434;SDS011;3250;42.694;23.278;2023-02-26T04:54:10;15.33;;;4.20;;
6434;SDS011;3250;42.694;23.278;2023-02-26T04:56:35;13.13;;;3.50;;
6434;SDS011;3250;42.694;23.278;2023-02-26T04:59:01;10.90;;;4.03;;
6434;SDS011;3250;42.694;23.278;2023-02-26T05:01:26;16.13;;;4.07;;
6434;SDS011;3250;42.694;23.278;2023-02-26T05:03:51;27.67;;;5.47;;
6434;SDS011;3250;42.694;23.278;2023-02-26T05:06:17;15.63;;;3.90;;
6434;SDS011;3250;42.694;23.278;2023-02-26T05:08:42;19.38;;;4.20;;
6434;SDS011;3250;42.694;23.278;2023-02-26T05:11:08;13.37;;;3.37;;
6434;SDS011;3250;42.694;23.278;2023-02-26T05:13:35;15.20;;;4.40;;
6434;SDS011;3250;42.694;23.278;2023-02-26T05:16:00;16.80;;;3.73;;
6434;SDS011;3250;42.694;23.278;2023-02-26T05:18:25;12.60;;;3.60;;
6434;SDS011;3250;42.694;23.278;2023-02-26T05:20:54;11.33;;;3.70;;
6434;SDS011;3250;42.694;23.278;2023-02-26T05:23:20;12.23;;;3.88;;
6434;SDS011;3250;42.694;23.278;2023-02-26T05:25:46;21.50;;;4.25;;
6434;SDS011;3250;42.694;23.278;2023-02-26T05:28:12;14.83;;;3.73;;
6434;SDS011;3250;42.694;23.278;2023-02-26T05:30:38;13.60;;;2.85;;
6434;SDS011;3250;42.694;23.278;2023-02-26T05:33:04;14.07;;;3.35;;
6434;SDS011;3250;42.694;23.278;2023-02-26T05:35:29;10.20;;;4.55;;
6434;SDS011;3250;42.694;23.278;2023-02-26T05:37:55;25.47;;;3.63;;
6434;SDS011;3250;42.694;23.278;2023-02-26T05:40:20;34.35;;;3.78;;
6434;SDS011;3250;42.694;23.278;2023-02-26T05:42:47;25.23;;;3.03;;
6434;SDS011;3250;42.694;23.278;2023-02-26T05:45:12;11.35;;;2.60;;
6434;SDS011;3250;42.694;23.278;2023-02-26T05:47:38;29.13;;;3.53;;
6434;SDS011;3250;42.694;23.278;2023-02-26T05:50:04;23.52;;;3.33;;
6434;SDS011;3250;42.694;23.278;2023-02-26T05:52:30;13.07;;;3.80;;
6434;SDS011;3250;42.694;23.278;2023-02-26T05:54:56;10.55;;;3.70;;
6434;SDS011;3250;42.694;23.278;2023-02-26T05:57:22;27.45;;;3.88;;
6434;SDS011;3250;42.694;23.278;2023-02-26T05:59:47;17.98;;;3.13;;
6434;SDS011;3250;42.694;23.278;2023-02-26T06:02:13;24.45;;;5.13;;
6434;SDS011;3250;42.694;23.278;2023-02-26T06:04:38;22.90;;;4.07;;
6434;SDS011;3250;42.694;23.278;2023-02-26T06:07:04;19.08;;;4.55;;
6434;SDS011;3250;42.694;23.278;2023-02-26T06:09:29;21.67;;;3.05;;
6434;SDS011;3250;42.694;23.278;2023-02-26T06:11:55;17.67;;;3.53;;
6434;SDS011;3250;42.694;23.278;2023-02-26T06:14:20;16.20;;;4.07;;
6434;SDS011;3250;42.694;23.278;2023-02-26T06:16:46;22.73;;;3.42;;
6434;SDS011;3250;42.694;23.278;2023-02-26T06:19:11;12.15;;;3.13;;
6434;SDS011;3250;42.694;23.278;2023-02-26T06:21:36;17.88;;;4.80;;
6434;SDS011;3250;42.694;23.278;2023-02-26T06:24:02;22.48;;;3.42;;
6434;SDS011;3250;42.694;23.278;2023-02-26T06:26:27;14.18;;;2.38;;
6434;SDS011;3250;42.694;23.278;2023-02-26T06:28:53;21.13;;;4.68;;
6434;SDS011;3250;42.694;23.278;2023-02-26T06:31:18;27.20;;;2.67;;
6434;SDS011;3250;42.694;23.278;2023-02-26T06:33:44;17.25;;;3.75;;
6434;SDS011;3250;42.694;23.278;2023-02-26T06:36:09;27.27;;;3.78;;
6434;SDS011;3250;42.694;23.278;2023-02-26T06:38:34;9.45;;;3.22;;
6434;SDS011;3250;42.694;23.278;2023-02-26T06:41:00;21.25;;;5.20;;
6434;SDS011;3250;42.694;23.278;2023-02-26T06:43:25;20.55;;;3.30;;
6434;SDS011;3250;42.694;23.278;2023-02-26T06:45:51;13.57;;;3.88;;
6434;SDS011;3250;42.694;23.278;2023-02-26T06:48:16;24.42;;;3.08;;
6434;SDS011;3250;42.694;23.278;2023-02-26T06:50:42;24.75;;;3.42;;
6434;SDS011;3250;42.694;23.278;2023-02-26T06:53:07;8.95;;;3.15;;
6434;SDS011;3250;42.694;23.278;2023-02-26T06:55:33;13.68;;;2.90;;
6434;SDS011;3250;42.694;23.278;2023-02-26T06:57:58;13.30;;;3.08;;
6434;SDS011;3250;42.694;23.278;2023-02-26T07:00:24;16.67;;;3.30;;
6434;SDS011;3250;42.694;23.278;2023-02-26T07:02:50;17.45;;;3.63;;
6434;SDS011;3250;42.694;23.278;2023-02-26T07:05:16;16.77;;;4.18;;
6434;SDS011;3250;42.694;23.278;2023-02-26T07:07:42;19.63;;;3.70;;
6434;SDS011;3250;42.694;23.278;2023-02-26T07:10:08;8.77;;;2.80;;
6434;SDS011;3250;42.694;23.278;2023-02-26T07:12:35;26.15;;;4.32;;
6434;SDS011;3250;42.694;23.278;2023-02-26T07:15:02;8.73;;;2.25;;
6434;SDS011;3250;42.694;23.278;2023-02-26T07:17:31;27.23;;;3.88;;
6434;SDS011;3250;42.694;23.278;2023-02-26T07:19:56;21.83;;;3.28;;
6434;SDS011;3250;42.694;23.278;2023-02-26T07:22:22;17.60;;;3.30;;
6434;SDS011;3250;42.694;23.278;2023-02-26T07:24:47;8.18;;;2.40;;
6434;SDS011;3250;42.694;23.278;2023-02-26T07:27:14;18.10;;;3.47;;
6434;SDS011;3250;42.694;23.278;2023-02-26T07:29:39;17.88;;;4.05;;
6434;SDS011;3250;42.694;23.278;2023-02-26T07:32:04;20.30;;;3.47;;
6434;SDS011;3250;42.694;23.278;2023-02-26T07:34:30;26.73;;;3.63;;
6434;SDS011;3250;42.694;23.278;2023-02-26T07:36:56;20.95;;;3.30;;
6434;SDS011;3250;42.694;23.278;2023-02-26T07:39:23;16.25;;;3.28;;
6434;SDS011;3250;42.694;23.278;2023-02-26T07:41:49;20.42;;;3.85;;
6434;SDS011;3250;42.694;23.278;2023-02-26T07:44:14;11.18;;;2.90;;
6434;SDS011;3250;42.694;23.278;2023-02-26T07:46:39;11.25;;;2.75;;
6434;SDS011;3250;42.694;23.278;2023-02-26T07:49:05;14.18;;;2.88;;
6434;SDS011;3250;42.694;23.278;2023-02-26T07:51:30;20.60;;;3.20;;
6434;SDS011;3250;42.694;23.278;2023-02-26T07:53:56;18.38;;;3.63;;
6434;SDS011;3250;42.694;23.278;2023-02-26T07:56:22;13.73;;;3.28;;
6434;SDS011;3250;42.694;23.278;2023-02-26T07:58:47;16.60;;;3.55;;
6434;SDS011;3250;42.694;23.278;2023-02-26T08:01:13;13.02;;;2.63;;
6434;SDS011;3250;42.694;23.278;2023-02-26T08:03:38;21.98;;;3.10;;
6434;SDS011;3250;42.694;23.278;2023-02-26T08:06:03;13.68;;;3.55;;
6434;SDS011;3250;42.694;23.278;2023-02-26T08:08:29;14.07;;;3.70;;
6434;SDS011;3250;42.694;23.278;2023-02-26T08:10:55;18.48;;;3.42;;
6434;SDS011;3250;42.694;23.278;2023-02-26T08:13:23;27.90;;;4.10;;
6434;SDS011;3250;42.694;23.278;2023-02-26T08:15:49;14.30;;;3.88;;
6434;SDS011;3250;42.694;23.278;2023-02-26T08:18:15;13.80;;;3.67;;
6434;SDS011;3250;42.694;23.278;2023-02-26T08:20:40;14.60;;;3.30;;
6434;SDS011;3250;42.694;23.278;2023-02-26T08:23:06;20.52;;;3.40;;
6434;SDS011;3250;42.694;23.278;2023-02-26T08:25:31;14.73;;;3.05;;
6434;SDS011;3250;42.694;23.278;2023-02-26T08:27:57;10.05;;;2.92;;
6434;SDS011;3250;42.694;23.278;2023-02-26T08:30:22;14.60;;;3.30;;
6434;SDS011;3250;42.694;23.278;2023-02-26T08:32:48;26.58;;;3.88;;
6434;SDS011;3250;42.694;23.278;2023-02-26T08:35:14;22.35;;;4.38;;
6434;SDS011;3250;42.694;23.278;2023-02-26T08:37:40;13.45;;;4.03;;
6434;SDS011;3250;42.694;23.278;2023-02-26T08:40:06;14.60;;;3.63;;
6434;SDS011;3250;42.694;23.278;2023-02-26T08:42:33;13.07;;;3.65;;
6434;SDS011;3250;42.694;23.278;2023-02-26T08:44:58;22.33;;;4.93;;
6434;SDS011;3250;42.694;23.278;2023-02-26T08:47:24;12.07;;;3.25;;
6434;SDS011;3250;42.694;23.278;2023-02-26T08:49:49;18.55;;;4.72;;
6434;SDS011;3250;42.694;23.278;2023-02-26T08:52:14;18.65;;;3.53;;
6434;SDS011;3250;42.694;23.278;2023-02-26T08:54:40;15.52;;;4.20;;
6434;SDS011;3250;42.694;23.278;2023-02-26T08:57:05;18.15;;;3.78;;
6434;SDS011;3250;42.694;23.278;2023-02-26T08:59:30;23.60;;;4.22;;
6434;SDS011;3250;42.694;23.278;2023-02-26T09:01:56;18.58;;;4.30;;
6434;SDS011;3250;42.694;23.278;2023-02-26T09:04:21;14.95;;;3.80;;
6434;SDS011;3250;42.694;23.278;2023-02-26T09:06:47;17.05;;;3.47;;
6434;SDS011;3250;42.694;23.278;2023-02-26T09:09:12;16.98;;;3.20;;
6434;SDS011;3250;42.694;23.278;2023-02-26T09:11:38;17.15;;;3.05;;
6434;SDS011;3250;42.694;23.278;2023-02-26T09:14:03;10.13;;;3.30;;
6434;SDS011;3250;42.694;23.278;2023-02-26T09:16:29;10.73;;;3.17;;
6434;SDS011;3250;42.694;23.278;2023-02-26T09:18:55;12.07;;;2.90;;
6434;SDS011;3250;42.694;23.278;2023-02-26T09:21:21;10.43;;;3.35;;
6434;SDS011;3250;42.694;23.278;2023-02-26T09:23:47;21.13;;;3.35;;
6434;SDS011;3250;42.694;23.278;2023-02-26T09:26:12;13.23;;;2.80;;
6434;SDS011;3250;42.694;23.278;2023-02-26T09:28:38;14.38;;;3.10;;
6434;SDS011;3250;42.694;23.278;2023-02-26T09:31:04;17.20;;;4.10;;
6434;SDS011;3250;42.694;23.278;2023-02-26T09:33:31;15.77;;;3.83;;
6434;SDS011;3250;42.694;23.278;2023-02-26T09:35:57;16.63;;;5.22;;
6434;SDS011;3250;42.694;23.278;2023-02-26T09:38:22;23.30;;;5.30;;
6434;SDS011;3250;42.694;23.278;2023-02-26T09:46:17;14.15;;;5.43;;
6434;SDS011;3250;42.694;23.278;2023-02-26T09:48:53;27.45;;;6.32;;
6434;SDS011;3250;42.694;23.278;2023-02-26T09:51:32;13.68;;;4.90;;
6434;SDS011;3250;42.694;23.278;2023-02-26T09:54:00;22.02;;;5.03;;
6434;SDS011;3250;42.694;23.278;2023-02-26T09:56:38;18.35;;;4.50;;
6434;SDS011;3250;42.694;23.278;2023-02-26T09:59:04;16.35;;;6.00;;
6434;SDS011;3250;42.694;23.278;2023-02-26T10:12:27;16.10;;;3.63;;
6434;SDS011;3250;42.694;23.278;2023-02-26T10:14:59;16.48;;;3.60;;
6434;SDS011;3250;42.694;23.278;2023-02-26T10:26:09;11.57;;;3.40;;
6434;SDS011;3250;42.694;23.278;2023-02-26T10:40:16;16.63;;;4.32;;
6434;SDS011;3250;42.694;23.278;2023-02-26T10:50:51;18.10;;;4.03;;
6434;SDS011;3250;42.694;23.278;2023-02-26T10:53:21;17.95;;;4.07;;
6434;SDS011;3250;42.694;23.278;2023-02-26T10:56:05;14.18;;;4.18;;
6434;SDS011;3250;42.694;23.278;2023-02-26T10:58:38;13.73;;;4.75;;
6434;SDS011;3250;42.694;23.278;2023-02-26T11:01:06;15.73;;;5.28;;
6434;SDS011;3250;42.694;23.278;2023-02-26T11:03:39;13.75;;;4.60;;
6434;SDS011;3250;42.694;23.278;2023-02-26T11:06:07;32.80;;;8.07;;
6434;SDS011;3250;42.694;23.278;2023-02-26T11:08:44;21.80;;;5.95;;
6434;SDS011;3250;42.694;23.278;2023-02-26T11:11:33;19.30;;;6.57;;
6434;SDS011;3250;42.694;23.278;2023-02-26T11:14:16;18.65;;;4.53;;
6434;SDS011;3250;42.694;23.278;2023-02-26T11:16:54;14.43;;;4.03;;
6434;SDS011;3250;42.694;23.278;2023-02-26T11:19:29;14.65;;;4.30;;
6434;SDS011;3250;42.694;23.278;2023-02-26T11:21:57;16.42;;;3.83;;
6434;SDS011;3250;42.694;23.278;2023-02-26T11:27:00;14.15;;;3.90;;
6434;SDS011;3250;42.694;23.278;2023-02-26T11:29:36;15.68;;;4.07;;
6434;SDS011;3250;42.694;23.278;2023-02-26T11:32:04;19.75;;;3.35;;
6434;SDS011;3250;42.694;23.278;2023-02-26T11:34:31;17.50;;;3.55;;
6434;SDS011;3250;42.694;23.278;2023-02-26T11:36:57;11.02;;;3.67;;
6434;SDS011;3250;42.694;23.278;2023-02-26T11:39:25;16.85;;;3.53;;
6434;SDS011;3250;42.694;23.278;2023-02-26T11:41:57;17.08;;;3.63;;
6434;SDS011;3250;42.694;23.278;2023-02-26T11:44:32;13.48;;;4.53;;
6434;SDS011;3250;42.694;23.278;2023-02-26T11:47:01;10.70;;;3.97;;
6434;SDS011;3250;42.694;23.278;2023-02-26T11:49:48;15.88;;;3.30;;
6434;SDS011;3250;42.694;23.278;2023-02-26T11:54:44;11.38;;;3.78;;
6434;SDS011;3250;42.694;23.278;2023-02-26T11:57:14;8.20;;;2.72;;
6434;SDS011;3250;42.694;23.278;2023-02-26T11:59:43;16.63;;;4.07;;
6434;SDS011;3250;42.694;23.278;2023-02-26T12:02:13;16.08;;;5.72;;
6434;SDS011;3250;42.694;23.278;2023-02-26T12:04:44;17.58;;;7.90;;
6434;SDS011;3250;42.694;23.278;2023-02-26T12:07:12;11.77;;;3.20;;
6434;SDS011;3250;42.694;23.278;2023-02-26T12:09:40;13.75;;;3.80;;
6434;SDS011;3250;42.694;23.278;2023-02-26T12:12:09;12.38;;;3.38;;
6434;SDS011;3250;42.694;23.278;2023-02-26T12:14:43;12.15;;;2.95;;
6434;SDS011;3250;42.694;23.278;2023-02-26T12:17:18;12.07;;;2.72;;
6434;SDS011;3250;42.694;23.278;2023-02-26T12:22:49;19.00;;;3.80;;
6434;SDS011;3250;42.694;23.278;2023-02-26T12:37:20;14.98;;;4.22;;
6434;SDS011;3250;42.694;23.278;2023-02-26T12:56:36;22.25;;;4.32;;
6434;SDS011;3250;42.694;23.278;2023-02-26T13:21:42;16.35;;;3.90;;
6434;SDS011;3250;42.694;23.278;2023-02-26T13:24:16;11.85;;;3.63;;
6434;SDS011;3250;42.694;23.278;2023-02-26T13:26:48;11.70;;;3.58;;
6434;SDS011;3250;42.694;23.278;2023-02-26T13:29:20;18.27;;;4.30;;
6434;SDS011;3250;42.694;23.278;2023-02-26T13:31:58;17.30;;;3.83;;
6434;SDS011;3250;42.694;23.278;2023-02-26T13:34:44;20.83;;;4.03;;
6434;SDS011;3250;42.694;23.278;2023-02-26T13:42:52;19.50;;;3.60;;
6434;SDS011;3250;42.694;23.278;2023-02-26T13:45:30;12.15;;;3.83;;
6434;SDS011;3250;42.694;23.278;2023-02-26T13:50:39;58.33;;;16.20;;
6434;SDS011;3250;42.694;23.278;2023-02-26T13:53:46;44.10;;;18.05;;
6434;SDS011;3250;42.694;23.278;2023-02-26T13:56:07;20.08;;;5.07;;
6434;SDS011;3250;42.694;23.278;2023-02-26T13:58:38;16.50;;;3.53;;
6434;SDS011;3250;42.694;23.278;2023-02-26T14:12:23;17.42;;;5.65;;
6434;SDS011;3250;42.694;23.278;2023-02-26T14:20:24;17.83;;;4.90;;
6434;SDS011;3250;42.694;23.278;2023-02-26T14:25:36;15.05;;;4.63;;
6434;SDS011;3250;42.694;23.278;2023-02-26T14:28:32;23.67;;;6.28;;
6434;SDS011;3250;42.694;23.278;2023-02-26T14:31:15;14.73;;;4.32;;
6434;SDS011;3250;42.694;23.278;2023-02-26T14:33:45;13.70;;;5.35;;
6434;SDS011;3250;42.694;23.278;2023-02-26T14:36:43;15.85;;;4.63;;
6434;SDS011;3250;42.694;23.278;2023-02-26T14:39:15;17.52;;;3.80;;
6434;SDS011;3250;42.694;23.278;2023-02-26T14:41:48;17.67;;;4.82;;
6434;SDS011;3250;42.694;23.278;2023-02-26T14:44:19;19.83;;;5.15;;
6434;SDS011;3250;42.694;23.278;2023-02-26T14:46:49;24.10;;;5.72;;
6434;SDS011;3250;42.694;23.278;2023-02-26T14:49:23;18.50;;;5.35;;
6434;SDS011;3250;42.694;23.278;2023-02-26T14:52:09;19.38;;;5.07;;
6434;SDS011;3250;42.694;23.278;2023-02-26T14:55:02;17.73;;;4.75;;
6434;SDS011;3250;42.694;23.278;2023-02-26T15:00:25;29.33;;;7.03;;
6434;SDS011;3250;42.694;23.278;2023-02-26T15:17:17;23.88;;;6.40;;
6434;SDS011;3250;42.694;23.278;2023-02-26T15:24:58;28.80;;;6.15;;
6434;SDS011;3250;42.694;23.278;2023-02-26T15:27:25;19.02;;;4.97;;
6434;SDS011;3250;42.694;23.278;2023-02-26T15:29:54;15.50;;;5.25;;
6434;SDS011;3250;42.694;23.278;2023-02-26T15:32:27;13.60;;;4.75;;
6434;SDS011;3250;42.694;23.278;2023-02-26T15:34:58;22.02;;;5.22;;
6434;SDS011;3250;42.694;23.278;2023-02-26T15:37:24;15.55;;;4.65;;
6434;SDS011;3250;42.694;23.278;2023-02-26T15:39:57;18.10;;;4.80;;
6434;SDS011;3250;42.694;23.278;2023-02-26T15:42:26;23.95;;;5.45;;
6434;SDS011;3250;42.694;23.278;2023-02-26T15:44:57;19.20;;;5.07;;
6434;SDS011;3250;42.694;23.278;2023-02-26T15:47:25;19.95;;;5.95;;
6434;SDS011;3250;42.694;23.278;2023-02-26T15:49:52;12.15;;;4.32;;
6434;SDS011;3250;42.694;23.278;2023-02-26T15:52:19;13.27;;;3.92;;
6434;SDS011;3250;42.694;23.278;2023-02-26T15:54:48;14.00;;;4.90;;
6434;SDS011;3250;42.694;23.278;2023-02-26T15:57:16;24.40;;;6.55;;
6434;SDS011;3250;42.694;23.278;2023-02-26T15:59:48;27.93;;;9.33;;
6434;SDS011;3250;42.694;23.278;2023-02-26T16:02:20;25.55;;;8.88;;
6434;SDS011;3250;42.694;23.278;2023-02-26T16:04:51;22.38;;;8.35;;
6434;SDS011;3250;42.694;23.278;2023-02-26T16:07:17;16.98;;;7.32;;
6434;SDS011;3250;42.694;23.278;2023-02-26T16:09:47;24.45;;;8.90;;
6434;SDS011;3250;42.694;23.278;2023-02-26T16:12:17;16.75;;;7.03;;
6434;SDS011;3250;42.694;23.278;2023-02-26T16:14:46;19.58;;;8.48;;
6434;SDS011;3250;42.694;23.278;2023-02-26T16:17:23;35.45;;;13.45;;
6434;SDS011;3250;42.694;23.278;2023-02-26T16:19:50;45.72;;;13.60;;
6434;SDS011;3250;42.694;23.278;2023-02-26T16:22:28;30.25;;;12.30;;
6434;SDS011;3250;42.694;23.278;2023-02-26T16:24:59;37.67;;;13.90;;
6434;SDS011;3250;42.694;23.278;2023-02-26T16:27:33;38.45;;;15.90;;
6434;SDS011;3250;42.694;23.278;2023-02-26T16:30:00;36.78;;;16.90;;
6434;SDS011;3250;42.694;23.278;2023-02-26T16:32:28;41.83;;;15.27;;
6434;SDS011;3250;42.694;23.278;2023-02-26T16:34:58;38.63;;;15.30;;
6434;SDS011;3250;42.694;23.278;2023-02-26T16:37:33;40.28;;;14.20;;
6434;SDS011;3250;42.694;23.278;2023-02-26T16:47:50;24.80;;;7.87;;
6434;SDS011;3250;42.694;23.278;2023-02-26T16:50:20;16.58;;;6.25;;
6434;SDS011;3250;42.694;23.278;2023-02-26T16:52:55;15.82;;;5.95;;
6434;SDS011;3250;42.694;23.278;2023-02-26T16:55:26;17.92;;;6.15;;
6434;SDS011;3250;42.694;23.278;2023-02-26T16:57:55;30.88;;;9.15;;
6434;SDS011;3250;42.694;23.278;2023-02-26T17:00:22;17.43;;;7.07;;
6434;SDS011;3250;42.694;23.278;2023-02-26T17:02:55;25.52;;;7.40;;
6434;SDS011;3250;42.694;23.278;2023-02-26T17:05:25;25.17;;;5.80;;
6434;SDS011;3250;42.694;23.278;2023-02-26T17:07:54;35.90;;;8.10;;
6434;SDS011;3250;42.694;23.278;2023-02-26T17:10:29;25.55;;;7.85;;
6434;SDS011;3250;42.694;23.278;2023-02-26T17:15:58;30.92;;;10.23;;
6434;SDS011;3250;42.694;23.278;2023-02-26T17:18:25;26.83;;;9.38;;
6434;SDS011;3250;42.694;23.278;2023-02-26T17:20:51;25.65;;;9.60;;
6434;SDS011;3250;42.694;23.278;2023-02-26T17:23:17;32.20;;;11.60;;
6434;SDS011;3250;42.694;23.278;2023-02-26T17:25:46;30.50;;;11.68;;
6434;SDS011;3250;42.694;23.278;2023-02-26T17:28:23;29.53;;;11.37;;
6434;SDS011;3250;42.694;23.278;2023-02-26T17:30:51;33.50;;;12.85;;
6434;SDS011;3250;42.694;23.278;2023-02-26T17:33:17;28.15;;;9.32;;
6434;SDS011;3250;42.694;23.278;2023-02-26T17:35:42;32.97;;;9.68;;
6434;SDS011;3250;42.694;23.278;2023-02-26T17:38:11;33.70;;;10.18;;
6434;SDS011;3250;42.694;23.278;2023-02-26T17:40:38;35.40;;;8.73;;
6434;SDS011;3250;42.694;23.278;2023-02-26T17:43:05;30.23;;;10.20;;
6434;SDS011;3250;42.694;23.278;2023-02-26T17:45:32;29.45;;;7.90;;
6434;SDS011;3250;42.694;23.278;2023-02-26T17:47:58;23.90;;;7.72;;
6434;SDS011;3250;42.694;23.278;2023-02-26T17:53:14;24.25;;;7.38;;
6434;SDS011;3250;42.694;23.278;2023-02-26T17:55:41;33.20;;;10.90;;
6434;SDS011;3250;42.694;23.278;2023-02-26T17:58:12;32.97;;;9.05;;
6434;SDS011;3250;42.694;23.278;2023-02-26T18:00:40;27.50;;;7.70;;
6434;SDS011;3250;42.694;23.278;2023-02-26T18:03:09;21.30;;;6.60;;
6434;SDS011;3250;42.694;23.278;2023-02-26T18:05:35;51.17;;;25.63;;
6434;SDS011;3250;42.694;23.278;2023-02-26T18:08:22;45.88;;;21.55;;
6434;SDS011;3250;42.694;23.278;2023-02-26T18:10:49;27.08;;;8.13;;
6434;SDS011;3250;42.694;23.278;2023-02-26T18:13:15;16.38;;;4.57;;
6434;SDS011;3250;42.694;23.278;2023-02-26T18:15:41;20.38;;;5.00;;
6434;SDS011;3250;42.694;23.278;2023-02-26T18:18:16;13.65;;;3.40;;
6434;SDS011;3250;42.694;23.278;2023-02-26T18:20:42;17.00;;;5.50;;
6434;SDS011;3250;42.694;23.278;2023-02-26T18:23:11;21.73;;;7.70;;
6434;SDS011;3250;42.694;23.278;2023-02-26T18:25:38;27.70;;;7.45;;
6434;SDS011;3250;42.694;23.278;2023-02-26T18:28:08;24.40;;;7.40;;
6434;SDS011;3250;42.694;23.278;2023-02-26T18:30:38;30.17;;;8.65;;
6434;SDS011;3250;42.694;23.278;2023-02-26T18:33:06;23.88;;;7.88;;
6434;SDS011;3250;42.694;23.278;2023-02-26T18:35:31;26.73;;;7.73;;
6434;SDS011;3250;42.694;23.278;2023-02-26T18:37:57;24.15;;;7.70;;